Faust, Utah
Current Conditions -  °F | °C
As of 10:35 PM on Sunday 21 Dec 2014 (Local Time) from KPVU Reporting Station
Overcast Overcast  
Wind Chill: 37°   Ceiling: 5000
Heat Index: 43°   Visibility: 10mi
Dew Point: 37°   Wind: 9mph
Humidity: 81%   Direction: 290°WNW
Pressure: 30.03"   Gusts: NA
Location:  40.0384°N, 112.37°W
Report Text: KPVU 220535Z AUTO 29008KT 10SM FEW040 OVC050 06/03 A3003 RMK AO1
Loading
Personal Weather Stations






























Interactive Weather Map New forecast layout! Learn more

10-Day Weather Forecast

Advertisements
Track Severe Weather on mobile